createdAt,value
2022-12-19T00:02:48.302Z,102485.09
2022-12-19T00:05:57.238Z,102481.13
2022-12-19T00:09:08.399Z,102483.86
2022-12-19T00:12:19.267Z,102482.17
2022-12-19T00:15:25.385Z,102498.38
2022-12-19T00:18:31.727Z,102503.45
2022-12-19T00:21:39.635Z,102500.32
2022-12-19T00:24:47.670Z,102510.75
2022-12-19T00:27:54.727Z,102510.00
2022-12-19T00:31:04.411Z,102515.87
2022-12-19T00:34:09.419Z,102515.56
2022-12-19T00:37:15.786Z,102521.97
2022-12-19T00:40:22.756Z,102519.92
2022-12-19T00:43:32.036Z,102522.97
2022-12-19T00:46:38.913Z,102529.42
2022-12-19T00:49:46.186Z,102547.47
2022-12-19T00:52:54.246Z,102549.80
2022-12-19T00:56:00.472Z,102548.59
2022-12-19T00:59:08.801Z,102550.47
2022-12-19T01:02:14.200Z,102554.21
2022-12-19T01:05:21.913Z,102555.69
2022-12-19T01:08:29.227Z,102561.09
2022-12-19T01:11:55.535Z,102564.75
2022-12-19T01:15:04.547Z,102559.47
2022-12-19T01:18:09.287Z,102565.81
2022-12-19T01:21:20.305Z,102556.52
2022-12-19T01:24:26.621Z,102567.84
2022-12-19T01:27:32.310Z,102561.23
2022-12-19T01:30:37.545Z,102566.22
2022-12-19T01:33:44.569Z,102576.09
2022-12-19T01:36:51.857Z,102570.28
2022-12-19T01:39:58.757Z,102573.89
2022-12-19T01:43:05.525Z,102577.92
2022-12-19T01:46:18.831Z,102569.14
2022-12-19T01:49:49.890Z,102570.16
2022-12-19T01:52:56.990Z,102575.19
2022-12-19T01:56:10.500Z,102580.62
2022-12-19T01:59:10.856Z,102589.11
2022-12-19T02:01:58.423Z,102592.23
2022-12-19T02:04:52.455Z,102596.81
2022-12-19T02:07:57.469Z,102602.70
2022-12-19T02:11:02.881Z,102599.53
2022-12-19T02:14:08.502Z,102605.27
2022-12-19T02:17:29.097Z,102608.39
2022-12-19T02:21:12.485Z,102619.59
2022-12-19T02:25:13.023Z,102612.08
2022-12-19T02:28:48.464Z,102616.13
2022-12-19T02:32:08.415Z,102619.33
2022-12-19T02:35:39.330Z,102620.26
2022-12-19T02:39:03.385Z,102617.62
2022-12-19T02:42:13.956Z,102622.16
2022-12-19T02:45:28.342Z,102615.50
2022-12-19T02:48:28.900Z,102618.25
2022-12-19T02:51:35.950Z,102610.28
2022-12-19T02:54:44.989Z,102613.92
2022-12-19T02:58:05.893Z,102613.55
2022-12-19T03:01:16.045Z,102606.55
2022-12-19T03:04:47.996Z,102627.56
2022-12-19T03:08:23.497Z,102636.15
2022-12-19T03:11:29.661Z,102633.54
2022-12-19T03:14:38.010Z,102644.70
2022-12-19T03:17:43.068Z,102656.33
2022-12-19T03:21:03.811Z,102656.30
2022-12-19T03:24:09.701Z,102661.61
2022-12-19T03:27:35.550Z,102666.94
2022-12-19T03:30:42.587Z,102670.13
2022-12-19T03:33:49.161Z,102675.13
2022-12-19T03:36:58.113Z,102677.97
2022-12-19T03:40:09.647Z,102685.66
2022-12-19T03:43:18.932Z,102692.47
2022-12-19T03:46:33.012Z,102690.33
2022-12-19T03:49:39.400Z,102702.82
2022-12-19T03:53:07.702Z,102721.91
2022-12-19T03:56:30.499Z,102720.03
2022-12-19T03:59:49.955Z,102735.11
2022-12-19T04:02:59.921Z,102747.41
2022-12-19T04:06:05.041Z,102759.75
2022-12-19T04:09:12.214Z,102752.58
2022-12-19T04:12:23.469Z,102765.87
2022-12-19T04:15:29.922Z,102771.38
2022-12-19T04:18:34.669Z,102761.24
2022-12-19T04:21:48.427Z,102764.42
2022-12-19T04:24:56.718Z,102763.56
2022-12-19T04:28:06.838Z,102756.03
2022-12-19T04:31:13.239Z,102769.84
2022-12-19T04:34:18.204Z,102776.08
2022-12-19T04:37:25.165Z,102769.42
2022-12-19T04:40:35.431Z,102773.44
2022-12-19T04:43:40.405Z,102776.63
2022-12-19T04:46:46.506Z,102793.16
2022-12-19T04:49:52.031Z,102793.69
2022-12-19T04:52:57.805Z,102789.81
2022-12-19T04:56:02.682Z,102793.91
2022-12-19T04:59:13.717Z,102793.89
2022-12-19T05:02:21.872Z,102790.73
2022-12-19T05:05:29.195Z,102796.05
2022-12-19T05:08:36.058Z,102810.38
2022-12-19T05:11:41.989Z,102805.20
2022-12-19T05:14:47.685Z,102816.03
2022-12-19T05:17:53.848Z,102829.86
2022-12-19T05:21:02.865Z,102828.93
2022-12-19T05:24:08.591Z,102837.98
2022-12-19T05:27:13.393Z,102843.40
2022-12-19T05:30:20.096Z,102857.73
2022-12-19T05:33:28.390Z,102865.84
2022-12-19T05:36:34.297Z,102879.31
2022-12-19T05:39:43.954Z,102877.16
2022-12-19T05:42:55.431Z,102890.58
2022-12-19T05:46:02.392Z,102890.22
2022-12-19T05:49:07.777Z,102898.72
2022-12-19T05:52:13.651Z,102888.22
2022-12-19T05:55:18.299Z,102893.70
2022-12-19T05:58:26.559Z,102886.25
2022-12-19T06:01:38.020Z,102899.64
2022-12-19T06:04:45.310Z,102914.27
2022-12-19T06:07:51.519Z,102927.14
2022-12-19T06:10:56.799Z,102932.06
2022-12-19T06:14:03.420Z,102945.84
2022-12-19T06:17:08.586Z,102946.79
2022-12-19T06:20:33.462Z,102944.63
2022-12-19T06:23:46.336Z,102958.08
2022-12-19T06:26:58.006Z,102970.48
2022-12-19T06:30:03.335Z,102978.95
2022-12-19T06:33:08.164Z,102992.33
2022-12-19T06:36:19.700Z,102995.52
2022-12-19T06:39:29.512Z,102996.43
2022-12-19T06:42:34.891Z,102996.05
2022-12-19T06:45:43.419Z,102996.52
2022-12-19T06:48:50.415Z,102993.40
2022-12-19T06:51:56.862Z,103003.67
2022-12-19T06:55:04.736Z,102999.72
2022-12-19T06:58:10.300Z,103000.22
2022-12-19T07:01:17.615Z,103005.97
2022-12-19T07:04:24.319Z,102999.27
2022-12-19T07:07:31.903Z,103002.39
2022-12-19T07:10:41.213Z,103006.38
2022-12-19T07:13:49.646Z,103023.24
2022-12-19T07:16:56.787Z,103018.75
2022-12-19T07:20:19.633Z,103008.92
2022-12-19T07:23:27.952Z,103004.06
2022-12-19T07:26:33.952Z,103015.59
2022-12-19T07:29:39.007Z,103004.95
2022-12-19T07:32:46.989Z,103028.07
2022-12-19T07:35:54.047Z,103025.38
2022-12-19T07:38:59.567Z,103041.38
2022-12-19T07:42:09.173Z,103050.68
2022-12-19T07:45:16.312Z,103041.25
2022-12-19T07:48:21.665Z,103059.36
2022-12-19T07:51:27.883Z,103057.48
2022-12-19T07:54:34.934Z,103049.39
2022-12-19T07:57:40.813Z,103058.16
2022-12-19T08:00:48.746Z,103057.59
2022-12-19T08:03:54.549Z,103058.48
2022-12-19T08:07:03.267Z,103052.55
2022-12-19T08:10:15.392Z,103062.33
2022-12-19T08:13:22.443Z,103078.28
2022-12-19T08:16:29.170Z,103066.14
2022-12-19T08:19:35.546Z,103057.59
2022-12-19T08:22:45.360Z,103076.23
2022-12-19T08:26:01.905Z,103066.76
2022-12-19T08:29:09.691Z,103063.50
2022-12-19T08:32:20.779Z,103068.23
2022-12-19T08:35:25.389Z,103069.57
2022-12-19T08:38:32.384Z,103079.72
2022-12-19T08:41:38.964Z,103081.53
2022-12-19T08:44:44.753Z,103083.35
2022-12-19T08:47:53.052Z,103080.30
2022-12-19T08:51:12.437Z,103099.39
2022-12-19T08:54:19.959Z,103116.74
2022-12-19T08:57:27.701Z,103105.98
2022-12-19T09:00:37.572Z,103111.27
2022-12-19T09:04:15.516Z,103096.88
2022-12-19T09:06:51.846Z,103112.02
2022-12-19T09:09:57.314Z,103101.24
2022-12-19T09:13:03.036Z,103093.61
2022-12-19T09:16:22.374Z,103120.79
2022-12-19T09:19:27.715Z,103109.69
2022-12-19T09:22:33.317Z,103101.78
2022-12-19T09:25:38.191Z,103096.88
2022-12-19T09:28:44.173Z,103103.05
2022-12-19T09:31:55.633Z,103095.31
2022-12-19T09:34:58.040Z,103105.41
2022-12-19T09:38:02.681Z,103110.72
2022-12-19T09:41:36.482Z,103087.53
2022-12-19T09:45:18.128Z,103091.91
2022-12-19T09:48:25.282Z,103105.63
2022-12-19T09:51:47.564Z,103099.83
2022-12-19T09:54:59.053Z,103101.16
2022-12-19T09:58:21.010Z,103109.20
2022-12-19T10:01:53.124Z,103108.26
2022-12-19T10:06:25.895Z,103111.36
2022-12-19T10:08:45.471Z,103128.71
2022-12-19T10:12:45.532Z,103131.36
2022-12-19T10:16:00.534Z,103122.42
2022-12-19T10:19:16.450Z,103130.83
2022-12-19T10:22:43.968Z,103137.09
2022-12-19T10:26:08.168Z,103134.41
2022-12-19T10:29:36.209Z,103127.34
2022-12-19T10:37:25.550Z,103121.55
2022-12-19T10:40:28.527Z,103107.10
2022-12-19T10:43:51.155Z,103111.91
2022-12-19T10:47:00.742Z,103107.63
2022-12-19T10:50:09.914Z,103110.41
2022-12-19T10:53:23.473Z,103118.80
2022-12-19T10:56:38.801Z,103115.25
2022-12-19T10:59:45.697Z,103111.34
2022-12-19T11:02:56.395Z,103110.41
2022-12-19T11:06:06.632Z,103101.35
2022-12-19T11:09:36.295Z,103109.63
2022-12-19T11:16:42.098Z,103125.17
2022-12-19T11:23:15.531Z,103122.87
2022-12-19T11:25:56.666Z,103139.36
2022-12-19T11:29:46.486Z,103138.94
2022-12-19T11:30:42.999Z,103129.19
2022-12-19T11:32:53.561Z,103123.86
2022-12-19T11:36:13.819Z,103124.70
2022-12-19T11:39:20.480Z,103122.30
2022-12-19T11:43:10.958Z,103142.36
2022-12-19T11:46:34.385Z,103147.25
2022-12-19T11:49:52.163Z,103150.97
2022-12-19T11:53:26.120Z,103146.52
2022-12-19T11:56:34.567Z,103137.86
2022-12-19T11:59:49.501Z,103150.51
2022-12-19T12:03:16.727Z,103156.05
2022-12-19T12:06:31.602Z,103150.55
2022-12-19T12:14:27.553Z,103159.88
2022-12-19T12:16:21.055Z,103151.92
2022-12-19T12:31:00.175Z,103148.79
2022-12-19T12:31:05.268Z,103139.66
2022-12-19T12:31:07.828Z,103137.20
2022-12-19T12:32:02.268Z,103130.78
2022-12-19T12:36:53.029Z,103129.18
2022-12-19T12:38:46.225Z,103118.61
2022-12-19T12:42:14.371Z,103103.59
2022-12-19T12:45:30.980Z,103092.75
2022-12-19T12:49:03.193Z,103096.55
2022-12-19T12:52:04.177Z,103096.26
2022-12-19T12:55:09.856Z,103102.86
2022-12-19T12:58:20.860Z,103106.84
2022-12-19T13:01:41.119Z,103121.53
2022-12-19T13:04:53.994Z,103119.70
2022-12-19T13:08:07.873Z,103135.06
2022-12-19T13:11:52.172Z,103144.19
2022-12-19T13:15:02.744Z,103148.34
2022-12-19T13:18:13.190Z,103151.61
2022-12-19T13:21:20.700Z,103165.58
2022-12-19T13:24:33.497Z,103179.03
2022-12-19T13:27:48.973Z,103175.52
2022-12-19T13:31:21.088Z,103179.55
2022-12-19T13:34:33.030Z,103167.94
2022-12-19T13:39:59.033Z,103168.80
2022-12-19T13:41:19.484Z,103172.45
2022-12-19T13:44:26.388Z,103164.54
2022-12-19T13:47:32.635Z,103166.74
2022-12-19T13:50:51.175Z,103162.59
2022-12-19T13:53:59.854Z,103159.80
2022-12-19T13:57:09.672Z,103149.41
2022-12-19T14:00:16.500Z,103153.84
2022-12-19T14:03:31.780Z,103152.02
2022-12-19T14:06:44.653Z,103150.63
2022-12-19T14:11:28.817Z,103152.38
2022-12-19T14:13:56.768Z,103153.31
2022-12-19T14:16:43.552Z,103159.06
2022-12-19T14:19:42.430Z,103160.09
2022-12-19T14:23:09.070Z,103164.16
2022-12-19T14:28:22.084Z,103155.27
2022-12-19T14:30:28.525Z,103167.38
2022-12-19T14:33:46.642Z,103158.86
2022-12-19T14:36:21.633Z,103171.48
2022-12-19T14:39:32.061Z,103173.80
2022-12-19T14:43:56.613Z,103190.31
2022-12-19T14:52:51.900Z,103185.49
2022-12-19T14:53:34.303Z,103184.52
2022-12-19T14:54:50.557Z,103191.77
2022-12-19T14:56:54.200Z,103194.42
2022-12-19T14:59:52.534Z,103196.25
2022-12-19T15:02:59.061Z,103191.73
2022-12-19T15:07:05.202Z,103191.70
2022-12-19T15:11:03.268Z,103194.46
2022-12-19T15:14:48.023Z,103187.48
2022-12-19T15:16:08.314Z,103188.33
2022-12-19T15:19:15.604Z,103184.27
2022-12-19T15:22:21.202Z,103179.67
2022-12-19T15:28:47.219Z,103173.35
2022-12-19T15:31:56.583Z,103171.16
2022-12-19T15:35:02.841Z,103173.06
2022-12-19T15:38:08.941Z,103182.95
2022-12-19T15:41:14.709Z,103177.55
2022-12-19T15:44:37.290Z,103183.29
2022-12-19T15:47:51.472Z,103185.49
2022-12-19T15:50:57.735Z,103180.56
2022-12-19T15:57:11.931Z,103177.50
2022-12-19T16:00:22.666Z,103174.29
2022-12-19T16:03:29.959Z,103166.26
2022-12-19T16:06:35.736Z,103178.77
2022-12-19T16:09:41.810Z,103162.75
2022-12-19T16:12:50.718Z,103152.66
2022-12-19T16:15:57.453Z,103155.80
2022-12-19T16:19:03.323Z,103160.25
2022-12-19T16:22:08.504Z,103162.90
2022-12-19T16:25:15.420Z,103158.34
2022-12-19T16:28:20.787Z,103168.65
2022-12-19T16:31:33.336Z,103155.39
2022-12-19T16:34:39.787Z,103173.02
2022-12-19T16:37:47.189Z,103174.88
2022-12-19T16:40:53.433Z,103177.98
2022-12-19T16:43:59.559Z,103177.57
2022-12-19T16:47:06.072Z,103172.64
2022-12-19T16:50:11.160Z,103174.02
2022-12-19T16:53:16.733Z,103170.55
2022-12-19T16:56:25.703Z,103165.24
2022-12-19T16:59:47.787Z,103163.86
2022-12-19T17:02:57.976Z,103168.72
2022-12-19T17:06:03.264Z,103170.03
2022-12-19T17:09:08.511Z,103182.98
2022-12-19T17:12:16.523Z,103184.92
2022-12-19T17:15:36.667Z,103187.23
2022-12-19T17:18:48.913Z,103175.34
2022-12-19T17:21:55.387Z,103181.23
2022-12-19T17:25:01.748Z,103188.41
2022-12-19T17:28:07.048Z,103184.82
2022-12-19T17:31:17.635Z,103186.30
2022-12-19T17:34:38.523Z,103166.04
2022-12-19T17:37:43.501Z,103167.14
2022-12-19T17:40:49.216Z,103161.55
2022-12-19T17:43:56.818Z,103169.31
2022-12-19T17:47:02.463Z,103173.47
2022-12-19T17:50:08.215Z,103176.24
2022-12-19T17:53:13.166Z,103180.42
2022-12-19T17:56:18.873Z,103184.56
2022-12-19T17:59:24.700Z,103192.23
2022-12-19T18:02:39.480Z,103199.47
2022-12-19T18:05:50.375Z,103198.19
2022-12-19T18:08:59.620Z,103193.83
2022-12-19T18:12:06.593Z,103190.30
2022-12-19T18:15:13.288Z,103193.94
2022-12-19T18:18:18.603Z,103199.39
2022-12-19T18:21:32.407Z,103200.78
2022-12-19T18:24:57.168Z,103201.34
2022-12-19T18:28:04.828Z,103209.05
2022-12-19T18:31:24.670Z,103207.78
2022-12-19T18:34:37.258Z,103213.61
2022-12-19T18:37:44.188Z,103209.22
2022-12-19T18:40:50.962Z,103208.75
2022-12-19T18:43:57.757Z,103200.73
2022-12-19T18:47:09.340Z,103204.36
2022-12-19T18:50:16.037Z,103206.61
2022-12-19T18:53:32.771Z,103203.56
2022-12-19T18:56:35.066Z,103205.84
2022-12-19T18:59:41.456Z,103216.61
2022-12-19T19:02:48.752Z,103207.70
2022-12-19T19:05:57.626Z,103201.05
2022-12-19T19:09:06.082Z,103194.38
2022-12-19T19:12:17.582Z,103188.20
2022-12-19T19:15:38.687Z,103188.27
2022-12-19T19:18:53.505Z,103189.65
2022-12-19T19:21:59.347Z,103192.42
2022-12-19T19:25:06.802Z,103195.20
2022-12-19T19:28:13.594Z,103197.00
2022-12-19T19:31:18.610Z,103194.81
2022-12-19T19:34:40.330Z,103189.52
2022-12-19T19:37:46.700Z,103191.80
2022-12-19T19:40:53.436Z,103178.52
2022-12-19T19:43:59.736Z,103180.78
2022-12-19T19:47:06.368Z,103183.09
2022-12-19T19:50:13.091Z,103178.62
2022-12-19T19:53:19.954Z,103179.60
2022-12-19T19:56:25.780Z,103183.16
2022-12-19T19:59:31.216Z,103185.86
2022-12-19T20:02:37.229Z,103184.08
2022-12-19T20:05:43.892Z,103182.77
2022-12-19T20:08:50.074Z,103182.34
2022-12-19T20:11:56.799Z,103181.92
2022-12-19T20:15:03.505Z,103177.08
2022-12-19T20:18:08.446Z,103181.63
2022-12-19T20:21:17.441Z,103183.91
2022-12-19T20:24:23.128Z,103185.73
2022-12-19T20:27:30.357Z,103184.43
2022-12-19T20:30:36.897Z,103186.23
2022-12-19T20:33:43.852Z,103189.82
2022-12-19T20:36:49.537Z,103186.77
2022-12-19T20:39:58.828Z,103183.19
2022-12-19T20:43:06.112Z,103182.75
2022-12-19T20:46:21.632Z,103181.83
2022-12-19T20:49:28.535Z,103177.39
2022-12-19T20:52:33.636Z,103175.18
2022-12-19T20:55:38.924Z,103172.03
2022-12-19T20:58:45.789Z,103174.27
2022-12-19T21:01:51.922Z,103165.36
2022-12-19T21:04:59.496Z,103159.16
2022-12-19T21:08:06.323Z,103160.05
2022-12-19T21:11:12.251Z,103157.41
2022-12-19T21:14:18.004Z,103163.70
2022-12-19T21:17:24.435Z,103156.60
2022-12-19T21:20:34.576Z,103154.42
2022-12-19T21:23:40.642Z,103152.66
2022-12-19T21:26:46.437Z,103151.77
2022-12-19T21:29:52.652Z,103151.80
2022-12-19T21:32:58.704Z,103151.40
2022-12-19T21:36:03.812Z,103156.33
2022-12-19T21:39:11.376Z,103156.78
2022-12-19T21:42:17.905Z,103156.80
2022-12-19T21:45:26.420Z,103159.49
2022-12-19T21:48:32.553Z,103154.60
2022-12-19T21:51:40.465Z,103164.88
2022-12-19T21:54:46.751Z,103163.56
2022-12-19T21:57:55.819Z,103163.13
2022-12-19T22:01:07.672Z,103166.73
2022-12-19T22:04:21.729Z,103155.59
2022-12-19T22:07:27.731Z,103152.06
2022-12-19T22:10:32.784Z,103157.44
2022-12-19T22:13:40.395Z,103155.72
2022-12-19T22:16:47.674Z,103145.94
2022-12-19T22:19:56.243Z,103157.98
2022-12-19T22:23:01.872Z,103161.16
2022-12-19T22:26:29.736Z,103153.59
2022-12-19T22:29:35.239Z,103148.29
2022-12-19T22:32:44.187Z,103139.81
2022-12-19T22:35:51.020Z,103139.41
2022-12-19T22:38:58.195Z,103141.20
2022-12-19T22:42:04.506Z,103136.31
2022-12-19T22:45:10.997Z,103134.52
2022-12-19T22:48:16.102Z,103135.42
2022-12-19T22:51:21.869Z,103137.19
2022-12-19T22:54:28.608Z,103125.16
2022-12-19T22:57:34.554Z,103121.61
2022-12-19T23:00:39.751Z,103124.28
2022-12-19T23:03:46.293Z,103116.72
2022-12-19T23:06:52.483Z,103123.85
2022-12-19T23:09:59.838Z,103118.54
2022-12-19T23:13:04.697Z,103121.21
2022-12-19T23:16:12.465Z,103122.13
2022-12-19T23:19:20.738Z,103112.77
2022-12-19T23:22:26.995Z,103115.44
2022-12-19T23:25:34.672Z,103120.36
2022-12-19T23:28:40.335Z,103115.47
2022-12-19T23:31:48.035Z,103114.63
2022-12-19T23:34:55.130Z,103105.73
2022-12-19T23:38:00.847Z,103106.18
2022-12-19T23:41:06.315Z,103108.84
2022-12-19T23:44:12.558Z,103106.66
2022-12-19T23:47:17.639Z,103106.62
2022-12-19T23:50:24.716Z,103104.87
2022-12-19T23:53:29.917Z,103095.09
2022-12-19T23:56:39.771Z,103095.11
2022-12-19T23:59:45.709Z,103105.33
